Lake Charles, LA

2:04 AM CDT on October 24, 2014 (GMT -0500)
Lake Charles Regional | Change Station
CLOSE
Current Station
Airport
Location: Lake Charles Regional,
Elevation: 7 ft
Nearby Weather Stations

Elev 7 ft 30.13 °N, 93.22 °W | Updated 11 minutes ago

Clear
Clear
53 °F
Feels Like 53 °F
N
4
Wind Variable Wind from NE

Today
High -- | Low -- °F
--% Chance of Precip.
Yesterday
High -- | Low -- °F
Precip. -- in
7:21 AM 6:32 PM
New Moon, 0% visible
Pressure 30.13 in
Visibility 10.0 miles
Clouds Clear
Dew Point 49 °F
Humidity 86%
Rainfall 0.00 in
Snow Depth Not available.
UV 0 out of 12
Pollen 4.40 out of 12
Air Quality Not available.
Flu Activity Sporadic
METAR KLCH 240653Z AUTO 04003KT 10SM CLR 12/09 A3011 RMK AO2 SLP202 T01170094

More Conditions Fewer Conditions

Pressure 30.13 in
Visibility 10.0 miles
Clouds Clear
Dew Point 49 °F
Humidity 86%
Rainfall 0.00 in
Snow Depth Not available.
UV 0 out of 12
Pollen 4.40 out of 12
Air Quality Not available.
Flu Activity Sporadic
METAR KLCH 240653Z AUTO 04003KT 10SM CLR 12/09 A3011 RMK AO2 SLP202 T01170094

More Conditions Fewer Conditions

10-Day Weather Forecast

Almanac

Astronomy

Oct. 24, 2014 Rise Set
Actual Time 7:21 AM CDT 6:32 PM CDT
Civil Twilight 6:56 AM CDT 6:56 PM CDT
Nautical Twilight 6:28 AM CDT 7:24 PM CDT
Astronomical Twilight 6:00 AM CDT 7:52 PM CDT
Moon 7:58 AM CDT 7:16 PM CDT
Length of Visible Light 12h 00m
Length of Day
11h 11m
Tomorrow will be 1m 40s shorter.
New Moon, 0% of the Moon is Illuminated
Today
New Moon
Oct 30
First Quarter
Nov 6
Full
Nov 14
Last Quarter
Nov 22
New

Today's Extremes

State Highs State Lows

Community

WunderPhotos

Upload Photos

1,764,510 photos uploaded!

WunderBlogs® & News

Nearby

Snow Depth

Station Depth Elevation
No new snow has been reported.

Earthquake Activity

City Distance Mag. Time & Date
No recent earthquake activity has been reported nearby.
Minimum magnitude displayed is 2.5.

Coastal Water Temperatures

Place Temperature
Calcasieu Pass, LA 72.0 °F
Sabine Pass North, TX 73.0 °F
Port Arthur, TX 75.0 °F
Fresh Water Canal Locks, LA 73.9 °F
Rollover Pass, TX 70.0 °F

Nearby Weather Stations